sensor_id;sensor_type;location;lat;lon;timestamp;P1;durP1;ratioP1;P2;durP2;ratioP2
75165;SDS011;63747;48.042;10.088;2023-02-15T00:01:07;220.43;;;20.73;;
75165;SDS011;63747;48.042;10.088;2023-02-15T00:07:16;141.30;;;16.58;;
75165;SDS011;63747;48.042;10.088;2023-02-15T00:10:18;207.60;;;20.38;;
75165;SDS011;63747;48.042;10.088;2023-02-15T00:13:19;290.60;;;23.27;;
75165;SDS011;63747;48.042;10.088;2023-02-15T00:16:20;368.53;;;27.70;;
75165;SDS011;63747;48.042;10.088;2023-02-15T00:19:20;389.93;;;32.37;;
75165;SDS011;63747;48.042;10.088;2023-02-15T00:22:21;113.85;;;17.35;;
75165;SDS011;63747;48.042;10.088;2023-02-15T00:25:22;249.73;;;18.20;;
75165;SDS011;63747;48.042;10.088;2023-02-15T00:28:23;250.87;;;18.63;;
75165;SDS011;63747;48.042;10.088;2023-02-15T00:31:24;221.23;;;18.43;;
75165;SDS011;63747;48.042;10.088;2023-02-15T00:34:26;257.75;;;20.45;;
75165;SDS011;63747;48.042;10.088;2023-02-15T00:37:27;185.18;;;17.60;;
75165;SDS011;63747;48.042;10.088;2023-02-15T00:40:28;246.87;;;18.80;;
75165;SDS011;63747;48.042;10.088;2023-02-15T00:43:29;251.13;;;18.60;;
75165;SDS011;63747;48.042;10.088;2023-02-15T00:46:30;281.70;;;20.17;;
75165;SDS011;63747;48.042;10.088;2023-02-15T00:49:32;242.43;;;16.40;;
75165;SDS011;63747;48.042;10.088;2023-02-15T00:52:32;423.73;;;27.40;;
75165;SDS011;63747;48.042;10.088;2023-02-15T00:55:33;332.07;;;20.80;;
75165;SDS011;63747;48.042;10.088;2023-02-15T00:58:33;412.67;;;27.40;;
75165;SDS011;63747;48.042;10.088;2023-02-15T01:01:34;228.80;;;17.63;;
75165;SDS011;63747;48.042;10.088;2023-02-15T01:04:35;363.37;;;22.33;;
75165;SDS011;63747;48.042;10.088;2023-02-15T01:07:36;358.73;;;22.10;;
75165;SDS011;63747;48.042;10.088;2023-02-15T01:10:36;134.60;;;15.13;;
75165;SDS011;63747;48.042;10.088;2023-02-15T01:13:37;385.90;;;20.00;;
75165;SDS011;63747;48.042;10.088;2023-02-15T01:16:38;261.67;;;15.80;;
75165;SDS011;63747;48.042;10.088;2023-02-15T01:19:39;160.80;;;16.30;;
75165;SDS011;63747;48.042;10.088;2023-02-15T01:22:39;153.23;;;15.10;;
75165;SDS011;63747;48.042;10.088;2023-02-15T01:25:40;227.70;;;16.97;;
75165;SDS011;63747;48.042;10.088;2023-02-15T01:28:41;301.30;;;21.00;;
75165;SDS011;63747;48.042;10.088;2023-02-15T01:31:42;267.10;;;18.20;;
75165;SDS011;63747;48.042;10.088;2023-02-15T01:34:43;154.00;;;16.47;;
75165;SDS011;63747;48.042;10.088;2023-02-15T01:37:44;143.83;;;15.23;;
75165;SDS011;63747;48.042;10.088;2023-02-15T01:40:44;180.23;;;16.90;;
75165;SDS011;63747;48.042;10.088;2023-02-15T01:43:49;176.57;;;16.27;;
75165;SDS011;63747;48.042;10.088;2023-02-15T01:46:52;194.95;;;17.45;;
75165;SDS011;63747;48.042;10.088;2023-02-15T01:49:58;155.67;;;16.03;;
75165;SDS011;63747;48.042;10.088;2023-02-15T01:53:16;166.25;;;15.70;;
75165;SDS011;63747;48.042;10.088;2023-02-15T01:56:25;151.32;;;15.68;;
75165;SDS011;63747;48.042;10.088;2023-02-15T01:59:33;220.00;;;18.90;;
75165;SDS011;63747;48.042;10.088;2023-02-15T02:02:36;97.95;;;15.52;;
75165;SDS011;63747;48.042;10.088;2023-02-15T02:05:37;94.70;;;16.00;;
75165;SDS011;63747;48.042;10.088;2023-02-15T02:11:40;137.68;;;14.43;;
75165;SDS011;63747;48.042;10.088;2023-02-15T02:14:41;74.10;;;13.95;;
75165;SDS011;63747;48.042;10.088;2023-02-15T02:18:00;137.88;;;14.95;;
75165;SDS011;63747;48.042;10.088;2023-02-15T02:21:30;217.82;;;17.75;;
75165;SDS011;63747;48.042;10.088;2023-02-15T02:25:03;76.00;;;13.98;;
75165;SDS011;63747;48.042;10.088;2023-02-15T02:28:29;89.63;;;13.23;;
75165;SDS011;63747;48.042;10.088;2023-02-15T02:42:09;173.68;;;16.67;;
75165;SDS011;63747;48.042;10.088;2023-02-15T02:45:22;51.67;;;12.93;;
75165;SDS011;63747;48.042;10.088;2023-02-15T02:48:29;73.60;;;13.05;;
75165;SDS011;63747;48.042;10.088;2023-02-15T02:51:33;61.15;;;12.82;;
75165;SDS011;63747;48.042;10.088;2023-02-15T02:54:34;60.67;;;12.07;;
75165;SDS011;63747;48.042;10.088;2023-02-15T02:57:36;77.72;;;12.38;;
75165;SDS011;63747;48.042;10.088;2023-02-15T03:00:42;211.60;;;16.02;;
75165;SDS011;63747;48.042;10.088;2023-02-15T03:03:52;110.47;;;12.82;;
75165;SDS011;63747;48.042;10.088;2023-02-15T03:06:59;109.10;;;12.30;;
75165;SDS011;63747;48.042;10.088;2023-02-15T03:10:03;215.73;;;14.48;;
75165;SDS011;63747;48.042;10.088;2023-02-15T03:13:07;126.53;;;12.25;;
75165;SDS011;63747;48.042;10.088;2023-02-15T03:16:09;203.27;;;13.52;;
75165;SDS011;63747;48.042;10.088;2023-02-15T03:19:28;104.20;;;11.77;;
75165;SDS011;63747;48.042;10.088;2023-02-15T03:22:34;91.55;;;12.75;;
75165;SDS011;63747;48.042;10.088;2023-02-15T03:25:39;110.50;;;13.57;;
75165;SDS011;63747;48.042;10.088;2023-02-15T03:28:43;108.05;;;12.73;;
75165;SDS011;63747;48.042;10.088;2023-02-15T03:31:49;139.40;;;13.52;;
75165;SDS011;63747;48.042;10.088;2023-02-15T03:34:54;140.10;;;13.35;;
75165;SDS011;63747;48.042;10.088;2023-02-15T03:37:57;65.18;;;11.70;;
75165;SDS011;63747;48.042;10.088;2023-02-15T03:41:01;110.38;;;12.20;;
75165;SDS011;63747;48.042;10.088;2023-02-15T03:44:18;119.90;;;12.75;;
75165;SDS011;63747;48.042;10.088;2023-02-15T03:47:28;160.82;;;12.45;;
75165;SDS011;63747;48.042;10.088;2023-02-15T03:50:34;143.23;;;12.35;;
75165;SDS011;63747;48.042;10.088;2023-02-15T03:53:57;140.13;;;12.55;;
75165;SDS011;63747;48.042;10.088;2023-02-15T03:56:59;144.43;;;12.05;;
75165;SDS011;63747;48.042;10.088;2023-02-15T04:00:23;166.85;;;13.65;;
75165;SDS011;63747;48.042;10.088;2023-02-15T04:03:57;85.43;;;13.20;;
75165;SDS011;63747;48.042;10.088;2023-02-15T04:07:02;102.28;;;13.93;;
75165;SDS011;63747;48.042;10.088;2023-02-15T04:10:05;71.43;;;13.75;;
75165;SDS011;63747;48.042;10.088;2023-02-15T04:13:33;119.15;;;13.65;;
75165;SDS011;63747;48.042;10.088;2023-02-15T04:16:34;137.60;;;14.43;;
75165;SDS011;63747;48.042;10.088;2023-02-15T04:19:35;125.73;;;14.37;;
75165;SDS011;63747;48.042;10.088;2023-02-15T04:22:54;115.72;;;13.35;;
75165;SDS011;63747;48.042;10.088;2023-02-15T04:26:14;125.05;;;13.18;;
75165;SDS011;63747;48.042;10.088;2023-02-15T04:29:15;64.60;;;12.60;;
75165;SDS011;63747;48.042;10.088;2023-02-15T04:32:15;111.97;;;12.70;;
75165;SDS011;63747;48.042;10.088;2023-02-15T04:35:16;85.17;;;12.60;;
75165;SDS011;63747;48.042;10.088;2023-02-15T04:38:17;74.18;;;12.38;;
75165;SDS011;63747;48.042;10.088;2023-02-15T04:41:18;84.37;;;12.17;;
75165;SDS011;63747;48.042;10.088;2023-02-15T04:44:19;102.60;;;13.83;;
75165;SDS011;63747;48.042;10.088;2023-02-15T04:47:19;57.20;;;12.97;;
75165;SDS011;63747;48.042;10.088;2023-02-15T04:50:20;63.50;;;12.50;;
75165;SDS011;63747;48.042;10.088;2023-02-15T04:53:21;61.27;;;13.40;;
75165;SDS011;63747;48.042;10.088;2023-02-15T04:56:21;51.57;;;13.50;;
75165;SDS011;63747;48.042;10.088;2023-02-15T04:59:22;72.53;;;13.43;;
75165;SDS011;63747;48.042;10.088;2023-02-15T05:02:23;107.90;;;16.37;;
75165;SDS011;63747;48.042;10.088;2023-02-15T05:05:24;71.20;;;16.47;;
75165;SDS011;63747;48.042;10.088;2023-02-15T05:08:24;108.70;;;16.43;;
75165;SDS011;63747;48.042;10.088;2023-02-15T05:11:25;120.20;;;18.83;;
75165;SDS011;63747;48.042;10.088;2023-02-15T05:14:26;145.95;;;15.77;;
75165;SDS011;63747;48.042;10.088;2023-02-15T05:17:27;47.73;;;11.90;;
75165;SDS011;63747;48.042;10.088;2023-02-15T05:20:28;53.23;;;12.43;;
75165;SDS011;63747;48.042;10.088;2023-02-15T05:23:31;44.40;;;12.77;;
75165;SDS011;63747;48.042;10.088;2023-02-15T05:26:32;38.73;;;12.37;;
75165;SDS011;63747;48.042;10.088;2023-02-15T05:29:52;54.25;;;11.45;;
75165;SDS011;63747;48.042;10.088;2023-02-15T05:32:52;49.67;;;11.93;;
75165;SDS011;63747;48.042;10.088;2023-02-15T05:35:53;27.03;;;11.87;;
75165;SDS011;63747;48.042;10.088;2023-02-15T05:38:54;37.07;;;12.67;;
75165;SDS011;63747;48.042;10.088;2023-02-15T05:41:58;60.33;;;14.30;;
75165;SDS011;63747;48.042;10.088;2023-02-15T05:45:02;57.65;;;13.13;;
75165;SDS011;63747;48.042;10.088;2023-02-15T05:48:03;45.67;;;13.50;;
75165;SDS011;63747;48.042;10.088;2023-02-15T05:51:05;86.37;;;15.07;;
75165;SDS011;63747;48.042;10.088;2023-02-15T05:54:08;111.78;;;14.32;;
75165;SDS011;63747;48.042;10.088;2023-02-15T05:57:09;68.23;;;14.13;;
75165;SDS011;63747;48.042;10.088;2023-02-15T06:00:10;73.57;;;12.40;;
75165;SDS011;63747;48.042;10.088;2023-02-15T06:03:12;75.00;;;13.05;;
75165;SDS011;63747;48.042;10.088;2023-02-15T06:06:12;90.73;;;13.60;;
75165;SDS011;63747;48.042;10.088;2023-02-15T06:09:13;77.07;;;15.37;;
75165;SDS011;63747;48.042;10.088;2023-02-15T06:12:14;61.87;;;14.47;;
75165;SDS011;63747;48.042;10.088;2023-02-15T06:15:15;44.63;;;15.77;;
75165;SDS011;63747;48.042;10.088;2023-02-15T06:18:16;43.27;;;16.77;;
75165;SDS011;63747;48.042;10.088;2023-02-15T06:21:16;20.27;;;14.47;;
75165;SDS011;63747;48.042;10.088;2023-02-15T06:24:17;27.50;;;15.53;;
75165;SDS011;63747;48.042;10.088;2023-02-15T06:27:18;20.20;;;14.80;;
75165;SDS011;63747;48.042;10.088;2023-02-15T06:30:18;20.13;;;14.73;;
75165;SDS011;63747;48.042;10.088;2023-02-15T06:33:19;18.13;;;14.00;;
75165;SDS011;63747;48.042;10.088;2023-02-15T06:36:20;17.63;;;13.27;;
75165;SDS011;63747;48.042;10.088;2023-02-15T06:39:20;16.67;;;13.00;;
75165;SDS011;63747;48.042;10.088;2023-02-15T06:42:21;16.27;;;11.70;;
75165;SDS011;63747;48.042;10.088;2023-02-15T06:45:23;15.07;;;12.38;;
75165;SDS011;63747;48.042;10.088;2023-02-15T06:48:25;14.35;;;11.93;;
75165;SDS011;63747;48.042;10.088;2023-02-15T06:51:26;15.07;;;11.80;;
75165;SDS011;63747;48.042;10.088;2023-02-15T06:54:27;14.27;;;11.00;;
75165;SDS011;63747;48.042;10.088;2023-02-15T06:57:27;16.50;;;12.10;;
75165;SDS011;63747;48.042;10.088;2023-02-15T07:00:28;13.80;;;11.47;;
75165;SDS011;63747;48.042;10.088;2023-02-15T07:03:29;12.90;;;11.40;;
75165;SDS011;63747;48.042;10.088;2023-02-15T07:06:31;15.60;;;12.23;;
75165;SDS011;63747;48.042;10.088;2023-02-15T07:09:35;14.50;;;12.35;;
75165;SDS011;63747;48.042;10.088;2023-02-15T07:12:36;14.80;;;12.68;;
75165;SDS011;63747;48.042;10.088;2023-02-15T07:15:44;16.25;;;13.55;;
75165;SDS011;63747;48.042;10.088;2023-02-15T07:18:46;18.23;;;15.05;;
75165;SDS011;63747;48.042;10.088;2023-02-15T07:21:47;17.53;;;14.00;;
75165;SDS011;63747;48.042;10.088;2023-02-15T07:24:48;19.77;;;15.83;;
75165;SDS011;63747;48.042;10.088;2023-02-15T07:27:55;24.67;;;18.47;;
75165;SDS011;63747;48.042;10.088;2023-02-15T07:31:02;33.20;;;19.48;;
75165;SDS011;63747;48.042;10.088;2023-02-15T07:34:05;21.75;;;17.35;;
75165;SDS011;63747;48.042;10.088;2023-02-15T07:37:07;31.27;;;19.00;;
75165;SDS011;63747;48.042;10.088;2023-02-15T07:40:07;26.20;;;20.07;;
75165;SDS011;63747;48.042;10.088;2023-02-15T07:43:08;27.47;;;19.73;;
75165;SDS011;63747;48.042;10.088;2023-02-15T07:46:10;23.07;;;17.13;;
75165;SDS011;63747;48.042;10.088;2023-02-15T07:49:13;22.75;;;15.85;;
75165;SDS011;63747;48.042;10.088;2023-02-15T07:52:15;19.92;;;15.65;;
75165;SDS011;63747;48.042;10.088;2023-02-15T07:55:16;22.23;;;15.63;;
75165;SDS011;63747;48.042;10.088;2023-02-15T07:58:16;22.17;;;16.03;;
75165;SDS011;63747;48.042;10.088;2023-02-15T08:01:18;20.57;;;15.57;;
75165;SDS011;63747;48.042;10.088;2023-02-15T08:04:20;22.30;;;15.77;;
75165;SDS011;63747;48.042;10.088;2023-02-15T08:07:21;21.30;;;14.60;;
75165;SDS011;63747;48.042;10.088;2023-02-15T08:10:21;22.53;;;14.43;;
75165;SDS011;63747;48.042;10.088;2023-02-15T08:13:43;17.83;;;14.27;;
75165;SDS011;63747;48.042;10.088;2023-02-15T08:16:53;20.95;;;14.35;;
75165;SDS011;63747;48.042;10.088;2023-02-15T08:19:56;21.70;;;15.02;;
75165;SDS011;63747;48.042;10.088;2023-02-15T08:22:56;19.33;;;15.43;;
75165;SDS011;63747;48.042;10.088;2023-02-15T08:25:59;21.63;;;15.03;;
75165;SDS011;63747;48.042;10.088;2023-02-15T08:29:00;19.55;;;15.55;;
75165;SDS011;63747;48.042;10.088;2023-02-15T08:35:05;20.02;;;15.45;;
75165;SDS011;63747;48.042;10.088;2023-02-15T08:38:06;19.23;;;13.82;;
75165;SDS011;63747;48.042;10.088;2023-02-15T08:44:16;16.10;;;13.38;;
75165;SDS011;63747;48.042;10.088;2023-02-15T08:47:18;17.35;;;14.30;;
75165;SDS011;63747;48.042;10.088;2023-02-15T08:50:19;15.60;;;13.50;;
75165;SDS011;63747;48.042;10.088;2023-02-15T08:53:19;19.47;;;15.10;;
75165;SDS011;63747;48.042;10.088;2023-02-15T08:56:22;19.33;;;13.98;;
75165;SDS011;63747;48.042;10.088;2023-02-15T08:59:25;19.92;;;13.82;;
75165;SDS011;63747;48.042;10.088;2023-02-15T09:02:26;21.47;;;16.33;;
75165;SDS011;63747;48.042;10.088;2023-02-15T09:05:27;19.20;;;15.27;;
75165;SDS011;63747;48.042;10.088;2023-02-15T09:08:28;20.30;;;15.70;;
75165;SDS011;63747;48.042;10.088;2023-02-15T09:11:29;23.27;;;15.83;;
75165;SDS011;63747;48.042;10.088;2023-02-15T09:14:33;22.38;;;15.70;;
75165;SDS011;63747;48.042;10.088;2023-02-15T09:17:34;23.20;;;16.13;;
75165;SDS011;63747;48.042;10.088;2023-02-15T09:20:35;21.33;;;16.43;;
75165;SDS011;63747;48.042;10.088;2023-02-15T09:23:36;20.23;;;15.65;;
75165;SDS011;63747;48.042;10.088;2023-02-15T09:26:38;23.17;;;16.40;;
75165;SDS011;63747;48.042;10.088;2023-02-15T09:29:40;25.05;;;18.58;;
75165;SDS011;63747;48.042;10.088;2023-02-15T09:32:41;24.77;;;18.47;;
75165;SDS011;63747;48.042;10.088;2023-02-15T09:35:42;20.60;;;16.60;;
75165;SDS011;63747;48.042;10.088;2023-02-15T09:38:43;21.23;;;15.67;;
75165;SDS011;63747;48.042;10.088;2023-02-15T09:42:04;23.08;;;16.80;;
75165;SDS011;63747;48.042;10.088;2023-02-15T09:45:23;21.05;;;16.63;;
75165;SDS011;63747;48.042;10.088;2023-02-15T09:48:53;18.42;;;15.27;;
75165;SDS011;63747;48.042;10.088;2023-02-15T09:55:24;20.55;;;15.00;;
75165;SDS011;63747;48.042;10.088;2023-02-15T09:58:53;20.13;;;16.13;;
75165;SDS011;63747;48.042;10.088;2023-02-15T10:19:58;19.45;;;15.35;;
75165;SDS011;63747;48.042;10.088;2023-02-15T10:23:34;16.25;;;13.70;;
75165;SDS011;63747;48.042;10.088;2023-02-15T10:46:01;18.23;;;13.63;;
75165;SDS011;63747;48.042;10.088;2023-02-15T10:49:26;15.13;;;12.85;;
75165;SDS011;63747;48.042;10.088;2023-02-15T10:53:02;14.48;;;11.85;;
75165;SDS011;63747;48.042;10.088;2023-02-15T10:56:19;16.55;;;12.23;;
75165;SDS011;63747;48.042;10.088;2023-02-15T11:02:50;15.77;;;12.98;;
75165;SDS011;63747;48.042;10.088;2023-02-15T11:06:13;16.02;;;12.27;;
75165;SDS011;63747;48.042;10.088;2023-02-15T11:09:18;16.52;;;12.05;;
75165;SDS011;63747;48.042;10.088;2023-02-15T11:12:23;17.48;;;12.55;;
75165;SDS011;63747;48.042;10.088;2023-02-15T11:21:36;16.07;;;12.80;;
75165;SDS011;63747;48.042;10.088;2023-02-15T11:24:42;19.27;;;12.98;;
75165;SDS011;63747;48.042;10.088;2023-02-15T11:27:44;19.20;;;14.02;;
75165;SDS011;63747;48.042;10.088;2023-02-15T11:30:51;16.10;;;13.00;;
75165;SDS011;63747;48.042;10.088;2023-02-15T11:33:59;14.18;;;12.63;;
75165;SDS011;63747;48.042;10.088;2023-02-15T11:37:06;20.42;;;12.73;;
75165;SDS011;63747;48.042;10.088;2023-02-15T11:43:29;15.80;;;12.68;;
75165;SDS011;63747;48.042;10.088;2023-02-15T11:46:35;15.73;;;12.43;;
75165;SDS011;63747;48.042;10.088;2023-02-15T11:49:37;14.60;;;12.15;;
75165;SDS011;63747;48.042;10.088;2023-02-15T11:52:38;18.10;;;12.55;;
75165;SDS011;63747;48.042;10.088;2023-02-15T11:55:39;17.27;;;12.13;;
75165;SDS011;63747;48.042;10.088;2023-02-15T12:01:54;14.60;;;12.05;;
75165;SDS011;63747;48.042;10.088;2023-02-15T12:04:58;19.90;;;11.83;;
75165;SDS011;63747;48.042;10.088;2023-02-15T12:08:09;13.77;;;11.30;;
75165;SDS011;63747;48.042;10.088;2023-02-15T12:11:21;15.27;;;12.05;;
75165;SDS011;63747;48.042;10.088;2023-02-15T12:14:27;17.20;;;12.80;;
75165;SDS011;63747;48.042;10.088;2023-02-15T12:17:51;13.83;;;12.23;;
75165;SDS011;63747;48.042;10.088;2023-02-15T12:20:57;13.75;;;11.98;;
75165;SDS011;63747;48.042;10.088;2023-02-15T12:24:03;15.35;;;11.77;;
75165;SDS011;63747;48.042;10.088;2023-02-15T12:27:16;15.38;;;12.05;;
75165;SDS011;63747;48.042;10.088;2023-02-15T12:30:23;15.18;;;11.88;;
75165;SDS011;63747;48.042;10.088;2023-02-15T12:33:32;13.80;;;12.10;;
75165;SDS011;63747;48.042;10.088;2023-02-15T12:36:40;15.73;;;11.50;;
75165;SDS011;63747;48.042;10.088;2023-02-15T12:39:50;15.60;;;11.88;;
75165;SDS011;63747;48.042;10.088;2023-02-15T12:42:59;15.38;;;11.63;;
75165;SDS011;63747;48.042;10.088;2023-02-15T12:49:34;13.07;;;11.00;;
75165;SDS011;63747;48.042;10.088;2023-02-15T12:52:36;15.32;;;12.20;;
75165;SDS011;63747;48.042;10.088;2023-02-15T12:55:37;14.98;;;12.88;;
75165;SDS011;63747;48.042;10.088;2023-02-15T12:58:39;16.10;;;12.93;;
75165;SDS011;63747;48.042;10.088;2023-02-15T13:01:41;14.05;;;12.50;;
75165;SDS011;63747;48.042;10.088;2023-02-15T13:04:47;14.05;;;12.45;;
75165;SDS011;63747;48.042;10.088;2023-02-15T13:07:50;14.10;;;12.52;;
75165;SDS011;63747;48.042;10.088;2023-02-15T13:11:00;16.00;;;12.32;;
75165;SDS011;63747;48.042;10.088;2023-02-15T13:14:55;15.97;;;12.93;;
75165;SDS011;63747;48.042;10.088;2023-02-15T13:17:50;14.90;;;12.17;;
75165;SDS011;63747;48.042;10.088;2023-02-15T13:21:14;18.42;;;13.45;;
75165;SDS011;63747;48.042;10.088;2023-02-15T13:27:39;17.02;;;13.40;;
75165;SDS011;63747;48.042;10.088;2023-02-15T13:30:43;17.35;;;13.30;;
75165;SDS011;63747;48.042;10.088;2023-02-15T13:33:58;16.73;;;13.45;;
75165;SDS011;63747;48.042;10.088;2023-02-15T13:37:16;16.38;;;12.90;;
75165;SDS011;63747;48.042;10.088;2023-02-15T13:40:22;17.85;;;13.07;;
75165;SDS011;63747;48.042;10.088;2023-02-15T13:46:55;17.50;;;13.38;;
75165;SDS011;63747;48.042;10.088;2023-02-15T13:50:20;15.95;;;13.27;;
75165;SDS011;63747;48.042;10.088;2023-02-15T14:17:50;17.05;;;13.18;;
75165;SDS011;63747;48.042;10.088;2023-02-15T14:21:32;16.58;;;12.85;;
75165;SDS011;63747;48.042;10.088;2023-02-15T14:24:45;17.73;;;13.20;;
75165;SDS011;63747;48.042;10.088;2023-02-15T14:28:19;19.00;;;13.82;;
75165;SDS011;63747;48.042;10.088;2023-02-15T14:31:28;17.15;;;12.90;;
75165;SDS011;63747;48.042;10.088;2023-02-15T14:41:21;16.58;;;12.60;;
75165;SDS011;63747;48.042;10.088;2023-02-15T14:44:27;18.67;;;13.32;;
75165;SDS011;63747;48.042;10.088;2023-02-15T14:47:33;16.75;;;12.55;;
75165;SDS011;63747;48.042;10.088;2023-02-15T14:50:44;20.40;;;11.95;;
75165;SDS011;63747;48.042;10.088;2023-02-15T14:53:46;18.13;;;12.68;;
75165;SDS011;63747;48.042;10.088;2023-02-15T14:57:19;15.85;;;11.15;;
75165;SDS011;63747;48.042;10.088;2023-02-15T15:00:28;13.83;;;11.60;;
75165;SDS011;63747;48.042;10.088;2023-02-15T15:03:34;16.55;;;11.85;;
75165;SDS011;63747;48.042;10.088;2023-02-15T15:06:38;15.75;;;12.27;;
75165;SDS011;63747;48.042;10.088;2023-02-15T15:09:45;18.27;;;11.35;;
75165;SDS011;63747;48.042;10.088;2023-02-15T15:22:48;26.70;;;12.10;;
75165;SDS011;63747;48.042;10.088;2023-02-15T15:25:52;21.10;;;13.18;;
75165;SDS011;63747;48.042;10.088;2023-02-15T15:29:28;18.45;;;12.93;;
75165;SDS011;63747;48.042;10.088;2023-02-15T15:32:48;16.30;;;11.93;;
75165;SDS011;63747;48.042;10.088;2023-02-15T15:39:43;18.60;;;12.27;;
75165;SDS011;63747;48.042;10.088;2023-02-15T15:43:24;17.60;;;13.45;;
75165;SDS011;63747;48.042;10.088;2023-02-15T15:50:19;20.05;;;15.70;;
75165;SDS011;63747;48.042;10.088;2023-02-15T15:53:20;21.48;;;16.58;;
75165;SDS011;63747;48.042;10.088;2023-02-15T15:56:26;22.08;;;15.55;;
75165;SDS011;63747;48.042;10.088;2023-02-15T15:59:31;20.10;;;15.60;;
75165;SDS011;63747;48.042;10.088;2023-02-15T16:02:34;21.83;;;15.25;;
75165;SDS011;63747;48.042;10.088;2023-02-15T16:05:50;21.35;;;16.35;;
75165;SDS011;63747;48.042;10.088;2023-02-15T16:08:55;22.02;;;17.05;;
75165;SDS011;63747;48.042;10.088;2023-02-15T16:11:56;25.15;;;17.15;;
75165;SDS011;63747;48.042;10.088;2023-02-15T16:15:02;23.20;;;17.05;;
75165;SDS011;63747;48.042;10.088;2023-02-15T16:18:14;20.50;;;17.77;;
75165;SDS011;63747;48.042;10.088;2023-02-15T16:21:21;21.65;;;18.52;;
75165;SDS011;63747;48.042;10.088;2023-02-15T16:24:33;22.10;;;17.80;;
75165;SDS011;63747;48.042;10.088;2023-02-15T16:27:42;23.02;;;19.15;;
75165;SDS011;63747;48.042;10.088;2023-02-15T16:30:44;21.92;;;18.60;;
75165;SDS011;63747;48.042;10.088;2023-02-15T16:33:45;22.15;;;19.05;;
75165;SDS011;63747;48.042;10.088;2023-02-15T16:36:45;24.27;;;19.17;;
75165;SDS011;63747;48.042;10.088;2023-02-15T16:39:46;25.77;;;20.73;;
75165;SDS011;63747;48.042;10.088;2023-02-15T16:42:51;23.90;;;19.98;;
75165;SDS011;63747;48.042;10.088;2023-02-15T16:45:56;25.63;;;21.02;;
75165;SDS011;63747;48.042;10.088;2023-02-15T16:49:05;25.60;;;20.75;;
75165;SDS011;63747;48.042;10.088;2023-02-15T16:52:19;25.35;;;21.27;;
75165;SDS011;63747;48.042;10.088;2023-02-15T16:55:24;25.40;;;21.42;;
75165;SDS011;63747;48.042;10.088;2023-02-15T16:58:36;27.42;;;22.25;;
75165;SDS011;63747;48.042;10.088;2023-02-15T17:01:40;24.77;;;21.95;;
75165;SDS011;63747;48.042;10.088;2023-02-15T17:04:45;24.83;;;21.45;;
75165;SDS011;63747;48.042;10.088;2023-02-15T17:08:16;28.15;;;20.95;;
75165;SDS011;63747;48.042;10.088;2023-02-15T17:11:42;25.25;;;20.88;;
75165;SDS011;63747;48.042;10.088;2023-02-15T17:14:44;25.70;;;20.95;;
75165;SDS011;63747;48.042;10.088;2023-02-15T17:17:45;24.70;;;21.25;;
75165;SDS011;63747;48.042;10.088;2023-02-15T17:20:47;29.17;;;22.25;;
75165;SDS011;63747;48.042;10.088;2023-02-15T17:23:50;27.25;;;22.58;;
75165;SDS011;63747;48.042;10.088;2023-02-15T17:26:58;35.53;;;26.27;;
75165;SDS011;63747;48.042;10.088;2023-02-15T17:30:05;41.63;;;30.80;;
75165;SDS011;63747;48.042;10.088;2023-02-15T17:36:29;34.72;;;27.05;;
75165;SDS011;63747;48.042;10.088;2023-02-15T17:39:31;31.27;;;25.30;;
75165;SDS011;63747;48.042;10.088;2023-02-15T17:42:32;26.35;;;22.25;;
75165;SDS011;63747;48.042;10.088;2023-02-15T17:45:39;30.23;;;24.37;;
75165;SDS011;63747;48.042;10.088;2023-02-15T17:48:46;32.47;;;23.70;;
75165;SDS011;63747;48.042;10.088;2023-02-15T17:51:48;30.67;;;23.40;;
75165;SDS011;63747;48.042;10.088;2023-02-15T17:54:48;29.80;;;22.37;;
75165;SDS011;63747;48.042;10.088;2023-02-15T17:58:12;30.27;;;22.50;;
75165;SDS011;63747;48.042;10.088;2023-02-15T18:01:16;30.20;;;22.92;;
75165;SDS011;63747;48.042;10.088;2023-02-15T18:04:38;31.98;;;25.77;;
75165;SDS011;63747;48.042;10.088;2023-02-15T18:08:00;32.47;;;25.40;;
75165;SDS011;63747;48.042;10.088;2023-02-15T18:11:19;34.72;;;25.67;;
75165;SDS011;63747;48.042;10.088;2023-02-15T18:14:36;30.25;;;25.15;;
75165;SDS011;63747;48.042;10.088;2023-02-15T18:17:41;53.47;;;45.50;;
75165;SDS011;63747;48.042;10.088;2023-02-15T18:20:44;43.45;;;35.05;;
75165;SDS011;63747;48.042;10.088;2023-02-15T18:23:45;38.93;;;29.93;;
75165;SDS011;63747;48.042;10.088;2023-02-15T18:26:45;33.97;;;27.07;;
75165;SDS011;63747;48.042;10.088;2023-02-15T18:32:48;39.42;;;28.83;;
75165;SDS011;63747;48.042;10.088;2023-02-15T18:35:51;34.20;;;26.67;;
75165;SDS011;63747;48.042;10.088;2023-02-15T18:38:53;31.57;;;24.63;;
75165;SDS011;63747;48.042;10.088;2023-02-15T18:41:57;32.25;;;21.83;;
75165;SDS011;63747;48.042;10.088;2023-02-15T18:44:59;27.97;;;18.17;;
75165;SDS011;63747;48.042;10.088;2023-02-15T18:48:02;24.85;;;15.85;;
75165;SDS011;63747;48.042;10.088;2023-02-15T18:51:03;24.63;;;16.52;;
75165;SDS011;63747;48.042;10.088;2023-02-15T18:54:17;25.63;;;16.73;;
75165;SDS011;63747;48.042;10.088;2023-02-15T18:57:20;22.33;;;16.23;;
75165;SDS011;63747;48.042;10.088;2023-02-15T19:00:22;39.70;;;27.53;;
75165;SDS011;63747;48.042;10.088;2023-02-15T19:03:24;34.05;;;24.48;;
75165;SDS011;63747;48.042;10.088;2023-02-15T19:06:25;39.20;;;28.77;;
75165;SDS011;63747;48.042;10.088;2023-02-15T19:09:26;28.83;;;20.23;;
75165;SDS011;63747;48.042;10.088;2023-02-15T19:12:28;45.35;;;31.85;;
75165;SDS011;63747;48.042;10.088;2023-02-15T19:15:29;25.77;;;18.43;;
75165;SDS011;63747;48.042;10.088;2023-02-15T19:18:30;36.20;;;25.83;;
75165;SDS011;63747;48.042;10.088;2023-02-15T19:21:31;31.07;;;18.17;;
75165;SDS011;63747;48.042;10.088;2023-02-15T19:27:37;25.60;;;15.63;;
75165;SDS011;63747;48.042;10.088;2023-02-15T19:30:37;26.03;;;16.77;;
75165;SDS011;63747;48.042;10.088;2023-02-15T19:33:39;41.47;;;25.53;;
75165;SDS011;63747;48.042;10.088;2023-02-15T19:36:40;27.77;;;18.20;;
75165;SDS011;63747;48.042;10.088;2023-02-15T19:39:42;30.08;;;19.50;;
75165;SDS011;63747;48.042;10.088;2023-02-15T19:42:43;34.10;;;22.33;;
75165;SDS011;63747;48.042;10.088;2023-02-15T19:45:44;32.03;;;22.27;;
75165;SDS011;63747;48.042;10.088;2023-02-15T19:48:45;28.80;;;21.15;;
75165;SDS011;63747;48.042;10.088;2023-02-15T19:51:47;27.25;;;20.90;;
75165;SDS011;63747;48.042;10.088;2023-02-15T19:54:48;65.53;;;40.22;;
75165;SDS011;63747;48.042;10.088;2023-02-15T19:57:49;141.55;;;64.50;;
75165;SDS011;63747;48.042;10.088;2023-02-15T20:00:51;152.02;;;71.53;;
75165;SDS011;63747;48.042;10.088;2023-02-15T20:03:51;82.77;;;42.17;;
75165;SDS011;63747;48.042;10.088;2023-02-15T20:06:54;102.15;;;47.33;;
75165;SDS011;63747;48.042;10.088;2023-02-15T20:09:56;90.40;;;42.67;;
75165;SDS011;63747;48.042;10.088;2023-02-15T20:12:57;68.27;;;34.87;;
75165;SDS011;63747;48.042;10.088;2023-02-15T20:15:58;56.93;;;28.17;;